createdAt,value
2022-11-06T00:01:15.978Z,5.70
2022-11-06T00:03:43.092Z,5.90
2022-11-06T00:06:35.404Z,5.87
2022-11-06T00:09:03.916Z,6.27
2022-11-06T00:11:30.677Z,6.27
2022-11-06T00:13:57.803Z,5.47
2022-11-06T00:16:24.685Z,5.67
2022-11-06T00:18:51.576Z,6.03
2022-11-06T00:21:26.103Z,5.87
2022-11-06T00:23:53.533Z,5.93
2022-11-06T00:26:22.100Z,6.17
2022-11-06T00:28:49.261Z,5.97
2022-11-06T00:31:17.670Z,6.60
2022-11-06T00:33:44.560Z,6.20
2022-11-06T00:36:16.337Z,6.93
2022-11-06T00:38:43.265Z,6.40
2022-11-06T00:41:14.507Z,6.37
2022-11-06T00:43:41.830Z,5.90
2022-11-06T00:46:12.435Z,7.07
2022-11-06T00:48:39.752Z,6.73
2022-11-06T00:51:21.349Z,6.33
2022-11-06T00:53:48.202Z,6.13
2022-11-06T00:56:16.616Z,6.47
2022-11-06T00:58:43.607Z,6.93
2022-11-06T01:01:10.966Z,6.00
2022-11-06T01:03:38.792Z,6.30
2022-11-06T01:06:10.659Z,6.57
2022-11-06T01:08:37.532Z,6.27
2022-11-06T01:11:13.142Z,6.73
2022-11-06T01:13:40.032Z,7.00
2022-11-06T01:16:08.460Z,7.20
2022-11-06T01:18:35.713Z,6.67
2022-11-06T01:21:16.812Z,7.30
2022-11-06T01:23:43.792Z,7.63
2022-11-06T01:26:11.424Z,7.47
2022-11-06T01:28:38.912Z,7.23
2022-11-06T01:31:09.923Z,8.63
2022-11-06T01:33:36.768Z,7.97
2022-11-06T01:36:03.794Z,8.40
2022-11-06T01:38:30.571Z,8.83
2022-11-06T01:40:57.351Z,8.27
2022-11-06T01:43:25.997Z,8.73
2022-11-06T01:45:54.488Z,8.20
2022-11-06T01:48:26.008Z,9.03
2022-11-06T01:50:55.529Z,8.53
2022-11-06T01:53:22.614Z,9.63
2022-11-06T01:55:51.636Z,8.90
2022-11-06T01:58:20.005Z,8.87
2022-11-06T02:00:46.862Z,8.27
2022-11-06T02:03:13.851Z,8.50
2022-11-06T02:05:41.249Z,9.17
2022-11-06T02:08:09.479Z,8.60
2022-11-06T02:10:36.392Z,8.43
2022-11-06T02:13:26.537Z,8.63
2022-11-06T02:16:11.402Z,8.40
2022-11-06T02:19:05.059Z,7.57
2022-11-06T02:21:34.617Z,8.33
2022-11-06T02:24:20.099Z,8.03
2022-11-06T02:26:49.878Z,8.17
2022-11-06T02:29:44.179Z,8.37
2022-11-06T02:32:13.274Z,8.80
2022-11-06T02:34:40.240Z,8.00
2022-11-06T02:37:18.403Z,8.70
2022-11-06T02:39:45.364Z,8.70
2022-11-06T02:42:13.929Z,9.13
2022-11-06T02:44:40.688Z,9.07
2022-11-06T02:47:09.589Z,8.30
2022-11-06T02:49:47.903Z,8.10
2022-11-06T02:52:25.241Z,8.83
2022-11-06T02:54:56.812Z,9.10
2022-11-06T02:57:23.745Z,8.37
2022-11-06T03:00:04.852Z,7.97
2022-11-06T03:02:37.235Z,8.07
2022-11-06T03:05:14.189Z,9.57
2022-11-06T03:07:55.291Z,8.30
2022-11-06T03:10:22.164Z,9.57
2022-11-06T03:12:55.819Z,7.33
2022-11-06T03:15:31.076Z,9.03
2022-11-06T03:18:07.027Z,9.37
2022-11-06T03:20:40.355Z,9.57
2022-11-06T03:23:14.684Z,9.27
2022-11-06T03:25:46.354Z,10.47
2022-11-06T03:28:19.366Z,9.20
2022-11-06T03:30:56.981Z,9.83
2022-11-06T03:33:26.849Z,9.40
2022-11-06T03:36:01.552Z,9.13
2022-11-06T03:38:37.202Z,8.13
2022-11-06T03:41:20.176Z,9.10
2022-11-06T03:43:47.972Z,8.37
2022-11-06T03:46:19.422Z,9.23
2022-11-06T03:48:57.400Z,9.50
2022-11-06T03:51:46.816Z,9.53
2022-11-06T03:54:35.177Z,9.17
2022-11-06T03:57:23.626Z,8.23
2022-11-06T03:59:52.892Z,7.50
2022-11-06T04:02:19.782Z,9.10
2022-11-06T04:04:51.963Z,8.30
2022-11-06T04:07:21.026Z,8.47
2022-11-06T04:10:10.269Z,8.97
2022-11-06T04:13:04.011Z,8.70
2022-11-06T04:15:39.385Z,7.90
2022-11-06T04:18:18.182Z,7.57
2022-11-06T04:21:23.323Z,8.23
2022-11-06T04:24:49.787Z,7.23
2022-11-06T04:27:37.687Z,6.90
2022-11-06T04:30:04.427Z,7.67
2022-11-06T04:32:40.258Z,7.53
2022-11-06T04:35:25.123Z,7.10
2022-11-06T04:38:03.173Z,7.40
2022-11-06T04:40:47.422Z,6.80
2022-11-06T04:43:34.091Z,6.23
2022-11-06T04:46:00.949Z,7.03
2022-11-06T04:48:27.817Z,6.33
2022-11-06T04:50:56.904Z,7.83
2022-11-06T04:53:23.673Z,6.60
2022-11-06T04:55:55.348Z,6.57
2022-11-06T04:58:22.293Z,6.27
2022-11-06T05:00:50.214Z,5.93
2022-11-06T05:03:17.344Z,6.70
2022-11-06T05:05:44.154Z,6.50
2022-11-06T05:08:18.695Z,6.47
2022-11-06T05:10:45.785Z,6.90
2022-11-06T05:13:13.009Z,6.47
2022-11-06T05:15:39.889Z,6.47
2022-11-06T05:18:06.757Z,6.53
2022-11-06T05:20:33.610Z,6.27
2022-11-06T05:23:00.815Z,6.03
2022-11-06T05:25:34.568Z,6.63
2022-11-06T05:28:01.655Z,6.20
2022-11-06T05:30:28.615Z,5.80
2022-11-06T05:32:55.423Z,6.73
2022-11-06T05:35:22.285Z,5.90
2022-11-06T05:37:49.181Z,5.23
2022-11-06T05:40:16.106Z,5.50
2022-11-06T05:42:43.633Z,5.50
2022-11-06T05:45:10.979Z,6.23
2022-11-06T05:47:40.645Z,5.83
2022-11-06T05:50:08.361Z,5.80
2022-11-06T05:52:35.763Z,4.97
2022-11-06T05:55:02.544Z,4.73
2022-11-06T05:57:29.349Z,5.13
2022-11-06T05:59:56.167Z,4.17
2022-11-06T06:02:23.051Z,4.67
2022-11-06T06:04:50.023Z,4.23
2022-11-06T06:07:16.849Z,4.30
2022-11-06T06:09:43.609Z,4.17
2022-11-06T06:12:11.944Z,4.37
2022-11-06T06:14:38.718Z,4.77
2022-11-06T06:17:05.585Z,4.77
2022-11-06T06:19:32.348Z,4.13
2022-11-06T06:21:59.096Z,4.20
2022-11-06T06:24:26.032Z,4.60
2022-11-06T06:26:52.884Z,5.10
2022-11-06T06:29:19.685Z,4.50
2022-11-06T06:31:46.521Z,4.07
2022-11-06T06:34:13.332Z,4.57
2022-11-06T06:36:40.087Z,4.30
2022-11-06T06:39:06.835Z,4.10
2022-11-06T06:41:33.677Z,4.20
2022-11-06T06:44:00.514Z,4.60
2022-11-06T06:46:27.280Z,5.63
2022-11-06T06:48:54.156Z,4.40
2022-11-06T06:51:23.981Z,4.53
2022-11-06T06:53:51.216Z,4.17
2022-11-06T06:56:17.969Z,3.73
2022-11-06T06:58:44.741Z,4.37
2022-11-06T07:01:11.647Z,4.00
2022-11-06T07:03:38.630Z,4.20
2022-11-06T07:06:05.831Z,3.80
2022-11-06T07:08:32.796Z,3.90
2022-11-06T07:11:03.880Z,3.80
2022-11-06T07:13:35.537Z,3.60
2022-11-06T07:16:06.729Z,4.27
2022-11-06T07:18:34.392Z,3.80
2022-11-06T07:21:01.213Z,3.90
2022-11-06T07:23:28.005Z,3.83
2022-11-06T07:25:54.938Z,3.77
2022-11-06T07:28:21.782Z,3.90
2022-11-06T07:30:49.055Z,3.90
2022-11-06T07:33:15.854Z,3.70
2022-11-06T07:35:42.721Z,4.57
2022-11-06T07:38:09.469Z,3.50
2022-11-06T07:40:36.398Z,3.43
2022-11-06T07:43:06.832Z,4.40
2022-11-06T07:45:33.824Z,3.23
2022-11-06T07:48:00.611Z,3.67
2022-11-06T07:50:27.635Z,4.10
2022-11-06T07:52:54.937Z,5.33
2022-11-06T07:55:21.827Z,4.27
2022-11-06T07:57:48.617Z,3.77
2022-11-06T08:00:16.513Z,3.73
2022-11-06T08:02:43.426Z,3.57
2022-11-06T08:05:10.329Z,4.33
2022-11-06T08:07:37.169Z,3.93
2022-11-06T08:10:04.376Z,4.37
2022-11-06T08:12:31.209Z,4.47
2022-11-06T08:14:58.013Z,4.77
2022-11-06T08:17:24.998Z,4.57
2022-11-06T08:19:51.802Z,3.97
2022-11-06T08:22:19.176Z,3.77
2022-11-06T08:24:45.996Z,3.70
2022-11-06T08:27:12.800Z,4.53
2022-11-06T08:29:41.663Z,3.80
2022-11-06T08:32:08.718Z,5.23
2022-11-06T08:34:36.190Z,3.87
2022-11-06T08:37:03.035Z,3.80
2022-11-06T08:39:30.227Z,3.73
2022-11-06T08:41:57.008Z,4.20
2022-11-06T08:44:24.710Z,5.03
2022-11-06T08:46:53.098Z,4.27
2022-11-06T08:49:19.937Z,4.50
2022-11-06T08:51:46.818Z,4.27
2022-11-06T08:54:13.822Z,4.63
2022-11-06T08:56:40.724Z,4.80
2022-11-06T08:59:07.569Z,4.87
2022-11-06T09:01:34.560Z,4.67
2022-11-06T09:04:01.454Z,4.57
2022-11-06T09:06:28.331Z,4.50
2022-11-06T09:08:55.552Z,3.87
2022-11-06T09:11:22.471Z,4.30
2022-11-06T09:13:49.288Z,4.60
2022-11-06T09:16:16.416Z,4.40
2022-11-06T09:18:43.816Z,4.47
2022-11-06T09:21:10.678Z,4.40
2022-11-06T09:23:37.464Z,5.03
2022-11-06T09:26:04.343Z,4.73
2022-11-06T09:28:31.186Z,4.73
2022-11-06T09:30:57.949Z,4.67
2022-11-06T09:33:24.701Z,4.13
2022-11-06T09:35:51.656Z,4.87
2022-11-06T09:38:19.184Z,4.10
2022-11-06T09:40:51.985Z,4.30
2022-11-06T09:46:44.997Z,4.80
2022-11-06T09:49:26.169Z,4.47
2022-11-06T09:52:08.001Z,4.10
2022-11-06T09:54:57.495Z,8.87
2022-11-06T09:57:43.526Z,3.80
2022-11-06T10:00:15.120Z,3.70
2022-11-06T10:02:55.956Z,3.60
2022-11-06T10:05:26.755Z,3.43
2022-11-06T10:08:06.808Z,3.47
2022-11-06T10:10:46.653Z,4.20
2022-11-06T10:13:38.404Z,3.87
2022-11-06T10:16:36.282Z,4.70
2022-11-06T10:19:12.113Z,3.90
2022-11-06T10:21:48.933Z,4.87
2022-11-06T10:24:39.228Z,4.00
2022-11-06T10:27:11.828Z,4.17
2022-11-06T10:29:44.543Z,4.07
2022-11-06T10:32:33.829Z,3.97
2022-11-06T10:35:03.012Z,4.03
2022-11-06T10:37:32.820Z,3.00
2022-11-06T10:39:59.609Z,3.80
2022-11-06T10:42:39.855Z,3.80
2022-11-06T10:45:11.755Z,4.63
2022-11-06T10:48:38.614Z,4.57
2022-11-06T10:51:32.564Z,4.80
2022-11-06T10:54:15.684Z,4.20
2022-11-06T10:56:47.708Z,3.83
2022-11-06T10:59:14.995Z,3.93
2022-11-06T11:01:41.905Z,4.67
2022-11-06T11:04:08.798Z,3.70
2022-11-06T11:06:38.239Z,4.50
2022-11-06T11:09:25.971Z,4.73
2022-11-06T11:11:52.745Z,4.60
2022-11-06T11:14:26.990Z,4.70
2022-11-06T11:16:53.933Z,4.40
2022-11-06T11:19:37.037Z,4.60
2022-11-06T11:22:18.309Z,4.03
2022-11-06T11:25:07.501Z,4.20
2022-11-06T11:27:44.409Z,4.30
2022-11-06T11:30:21.473Z,3.90
2022-11-06T11:32:48.329Z,3.90
2022-11-06T11:35:18.425Z,4.60
2022-11-06T11:37:45.228Z,5.87
2022-11-06T11:40:38.611Z,4.03
2022-11-06T11:43:24.326Z,3.67
2022-11-06T11:46:03.605Z,3.60
2022-11-06T11:48:46.612Z,4.63
2022-11-06T11:51:28.724Z,4.57
2022-11-06T11:53:57.861Z,4.60
2022-11-06T11:56:49.644Z,4.03
2022-11-06T11:59:16.404Z,3.50
2022-11-06T12:01:43.263Z,4.07
2022-11-06T12:04:23.555Z,3.77
2022-11-06T12:06:58.261Z,3.77
2022-11-06T12:09:25.829Z,2.87
2022-11-06T12:11:53.953Z,3.40
2022-11-06T12:14:29.716Z,4.40
2022-11-06T12:17:20.381Z,3.67
2022-11-06T12:19:52.469Z,4.13
2022-11-06T12:22:24.451Z,3.47
2022-11-06T12:24:55.296Z,3.43
2022-11-06T12:27:27.981Z,3.33
2022-11-06T12:30:09.682Z,3.73
2022-11-06T12:32:48.564Z,3.27
2022-11-06T12:35:24.641Z,3.40
2022-11-06T12:37:57.324Z,2.53
2022-11-06T12:40:40.767Z,3.23
2022-11-06T12:43:15.955Z,2.70
2022-11-06T12:46:24.088Z,3.67
2022-11-06T12:49:28.256Z,3.23
2022-11-06T12:52:19.647Z,2.93
2022-11-06T12:55:08.354Z,2.80
2022-11-06T12:57:44.065Z,2.80
2022-11-06T13:00:20.879Z,2.90
2022-11-06T13:03:22.228Z,2.77
2022-11-06T13:06:13.362Z,2.90
2022-11-06T13:08:53.002Z,2.80
2022-11-06T13:11:31.858Z,2.93
2022-11-06T13:14:04.568Z,3.17
2022-11-06T13:17:00.920Z,2.90
2022-11-06T13:19:44.917Z,2.97
2022-11-06T13:22:20.762Z,3.47
2022-11-06T13:25:22.379Z,3.50
2022-11-06T13:28:12.039Z,3.90
2022-11-06T13:30:39.051Z,3.50
2022-11-06T13:33:16.769Z,3.30
2022-11-06T13:35:43.741Z,3.20
2022-11-06T13:38:17.429Z,3.27
2022-11-06T13:40:45.215Z,3.53
2022-11-06T13:43:28.657Z,3.23
2022-11-06T13:46:15.616Z,3.40
2022-11-06T13:49:23.457Z,3.00
2022-11-06T13:52:00.821Z,3.40
2022-11-06T13:54:54.702Z,2.97
2022-11-06T13:57:24.255Z,3.30
2022-11-06T13:59:58.430Z,3.03
2022-11-06T14:02:40.399Z,3.33
2022-11-06T14:05:32.006Z,3.17
2022-11-06T14:07:58.814Z,3.33
2022-11-06T14:10:37.230Z,2.83
2022-11-06T14:13:04.322Z,2.90
2022-11-06T14:15:39.746Z,3.37
2022-11-06T14:18:06.551Z,3.17
2022-11-06T14:20:37.568Z,3.43
2022-11-06T14:23:43.010Z,3.60
2022-11-06T14:26:13.443Z,3.70
2022-11-06T14:28:41.581Z,3.43
2022-11-06T14:31:15.055Z,3.13
2022-11-06T14:33:43.268Z,3.30
2022-11-06T14:36:30.377Z,3.60
2022-11-06T14:38:57.356Z,3.80
2022-11-06T14:41:36.491Z,3.60
2022-11-06T14:44:13.705Z,3.63
2022-11-06T14:46:40.506Z,3.87
2022-11-06T14:49:31.668Z,3.63
2022-11-06T14:52:04.852Z,3.97
2022-11-06T14:54:31.681Z,3.97
2022-11-06T14:56:58.717Z,3.50
2022-11-06T14:59:30.088Z,4.33
2022-11-06T15:02:21.267Z,4.00
2022-11-06T15:04:51.670Z,4.00
2022-11-06T15:08:04.408Z,4.90
2022-11-06T15:10:43.842Z,4.73
2022-11-06T15:13:24.328Z,4.73
2022-11-06T15:16:04.028Z,4.40
2022-11-06T15:18:32.963Z,3.97
2022-11-06T15:21:04.838Z,4.63
2022-11-06T15:23:33.376Z,4.50
2022-11-06T15:26:05.209Z,4.37
2022-11-06T15:28:42.699Z,4.40
2022-11-06T15:31:13.837Z,4.47
2022-11-06T15:33:52.953Z,4.00
2022-11-06T15:36:22.311Z,4.13
2022-11-06T15:38:49.105Z,4.63
2022-11-06T15:41:23.493Z,3.80
2022-11-06T15:43:51.204Z,4.53
2022-11-06T15:46:26.096Z,4.20
2022-11-06T15:49:18.592Z,4.20
2022-11-06T15:51:52.325Z,4.40
2022-11-06T15:54:36.147Z,5.40
2022-11-06T15:57:25.675Z,5.20
2022-11-06T16:00:12.839Z,4.80
2022-11-06T16:03:01.568Z,5.30
2022-11-06T16:05:29.707Z,5.50
2022-11-06T16:07:56.925Z,5.93
2022-11-06T16:10:23.804Z,5.97
2022-11-06T16:12:51.084Z,5.60
2022-11-06T16:15:46.036Z,5.70
2022-11-06T16:18:29.032Z,6.50
2022-11-06T16:20:56.896Z,6.27
2022-11-06T16:23:36.264Z,5.90
2022-11-06T16:26:08.420Z,5.73
2022-11-06T16:28:36.428Z,5.73
2022-11-06T16:31:16.920Z,6.13
2022-11-06T16:34:02.962Z,5.43
2022-11-06T16:36:30.999Z,5.60
2022-11-06T16:39:16.486Z,5.80
2022-11-06T16:41:59.436Z,6.10
2022-11-06T16:44:36.010Z,6.07
2022-11-06T16:47:18.795Z,5.80
2022-11-06T16:49:54.292Z,5.47
2022-11-06T16:52:35.653Z,5.10
2022-11-06T16:55:05.257Z,5.83
2022-11-06T16:57:43.503Z,6.43
2022-11-06T17:00:19.600Z,6.80
2022-11-06T17:02:51.606Z,6.23
2022-11-06T17:05:22.848Z,6.37
2022-11-06T17:07:49.894Z,6.80
2022-11-06T17:10:32.829Z,6.57
2022-11-06T17:12:59.581Z,7.43
2022-11-06T17:15:26.559Z,6.60
2022-11-06T17:17:53.309Z,7.87
2022-11-06T17:20:20.081Z,7.47
2022-11-06T17:22:46.977Z,7.23
2022-11-06T17:25:13.964Z,7.70
2022-11-06T17:27:40.852Z,7.93
2022-11-06T17:30:15.017Z,7.10
2022-11-06T17:32:42.043Z,7.40
2022-11-06T17:35:09.257Z,8.40
2022-11-06T17:37:39.017Z,9.17
2022-11-06T17:40:06.383Z,7.63
2022-11-06T17:42:33.388Z,8.77
2022-11-06T17:45:00.157Z,8.83
2022-11-06T17:47:27.171Z,8.33
2022-11-06T17:49:53.986Z,9.17
2022-11-06T17:52:21.489Z,9.47
2022-11-06T17:54:48.322Z,8.10
2022-11-06T17:57:19.775Z,10.77
2022-11-06T17:59:49.756Z,8.17
2022-11-06T18:02:29.724Z,9.07
2022-11-06T18:05:04.168Z,8.20
2022-11-06T18:07:31.186Z,8.07
2022-11-06T18:09:57.947Z,8.50
2022-11-06T18:12:27.545Z,8.50
2022-11-06T18:14:54.383Z,8.63
2022-11-06T18:17:21.253Z,8.97
2022-11-06T18:19:48.217Z,9.03
2022-11-06T18:22:15.036Z,8.20
2022-11-06T18:24:41.899Z,9.57
2022-11-06T18:27:08.699Z,8.07
2022-11-06T18:29:35.520Z,8.57
2022-11-06T18:32:02.531Z,7.37
2022-11-06T18:34:29.429Z,7.63
2022-11-06T18:36:56.208Z,7.93
2022-11-06T18:39:23.011Z,7.47
2022-11-06T18:41:49.811Z,6.90
2022-11-06T18:44:17.578Z,6.40
2022-11-06T18:46:45.538Z,7.17
2022-11-06T18:49:12.688Z,6.23
2022-11-06T18:51:40.341Z,6.70
2022-11-06T18:54:08.383Z,6.33
2022-11-06T18:56:36.340Z,7.17
2022-11-06T18:59:04.804Z,6.83
2022-11-06T19:01:31.702Z,7.60
2022-11-06T19:03:58.627Z,7.00
2022-11-06T19:06:25.469Z,6.73
2022-11-06T19:08:52.219Z,7.43
2022-11-06T19:11:19.073Z,7.13
2022-11-06T19:13:48.287Z,7.60
2022-11-06T19:16:19.639Z,6.93
2022-11-06T19:18:46.778Z,6.90
2022-11-06T19:21:13.741Z,6.63
2022-11-06T19:23:42.240Z,7.30
2022-11-06T19:26:30.105Z,7.23
2022-11-06T19:28:58.371Z,7.50
2022-11-06T19:31:29.140Z,7.63
2022-11-06T19:33:59.621Z,7.90
2022-11-06T19:36:26.593Z,8.67
2022-11-06T19:38:53.788Z,8.90
2022-11-06T19:41:20.629Z,8.83
2022-11-06T19:43:47.540Z,7.53
2022-11-06T19:46:18.188Z,8.17
2022-11-06T19:48:47.698Z,9.30
2022-11-06T19:51:15.071Z,7.87
2022-11-06T19:53:42.165Z,7.70
2022-11-06T19:56:10.525Z,8.07
2022-11-06T19:58:37.316Z,8.00
2022-11-06T20:01:11.055Z,7.60
2022-11-06T20:03:37.888Z,9.10
2022-11-06T20:06:07.961Z,10.03
2022-11-06T20:08:36.883Z,9.57
2022-11-06T20:11:08.168Z,8.80
2022-11-06T20:13:36.666Z,8.97
2022-11-06T20:16:07.910Z,8.43
2022-11-06T20:18:37.887Z,8.17
2022-11-06T20:21:06.529Z,8.23
2022-11-06T20:23:33.652Z,6.93
2022-11-06T20:26:00.465Z,7.20
2022-11-06T20:28:27.613Z,7.93
2022-11-06T20:30:54.501Z,7.50
2022-11-06T20:33:21.296Z,7.40
2022-11-06T20:35:48.086Z,5.37
2022-11-06T20:38:15.044Z,4.93
2022-11-06T20:40:42.457Z,5.00
2022-11-06T20:43:09.459Z,4.83
2022-11-06T20:45:37.649Z,4.47
2022-11-06T20:48:05.303Z,4.63
2022-11-06T20:50:32.224Z,4.40
2022-11-06T20:52:58.981Z,4.77
2022-11-06T20:55:25.864Z,4.10
2022-11-06T20:57:52.658Z,4.03
2022-11-06T21:00:19.609Z,4.33
2022-11-06T21:02:46.969Z,3.77
2022-11-06T21:05:15.009Z,4.43
2022-11-06T21:07:42.072Z,4.13
2022-11-06T21:10:11.041Z,3.63
2022-11-06T21:12:38.028Z,4.10
2022-11-06T21:15:05.344Z,4.33
2022-11-06T21:17:32.183Z,4.43
2022-11-06T21:19:59.083Z,3.73
2022-11-06T21:22:25.860Z,4.03
2022-11-06T21:24:52.660Z,4.33
2022-11-06T21:27:20.135Z,4.30
2022-11-06T21:29:46.952Z,4.67
2022-11-06T21:32:13.725Z,3.67
2022-11-06T21:34:40.476Z,4.17
2022-11-06T21:37:07.264Z,3.80
2022-11-06T21:39:36.583Z,4.40
2022-11-06T21:42:04.687Z,3.70
2022-11-06T21:44:31.580Z,3.80
2022-11-06T21:46:58.338Z,3.60
2022-11-06T21:49:25.204Z,3.43
2022-11-06T21:51:51.967Z,5.97
2022-11-06T21:54:37.237Z,3.23
2022-11-06T21:57:04.140Z,3.73
2022-11-06T21:59:31.079Z,4.23
2022-11-06T22:01:58.085Z,3.27
2022-11-06T22:04:25.032Z,3.40
2022-11-06T22:06:52.581Z,4.10
2022-11-06T22:09:24.441Z,3.90
2022-11-06T22:11:52.388Z,3.50
2022-11-06T22:14:19.215Z,3.83
2022-11-06T22:16:46.946Z,3.10
2022-11-06T22:19:14.021Z,3.70
2022-11-06T22:21:41.171Z,4.10
2022-11-06T22:24:08.198Z,3.60
2022-11-06T22:26:35.311Z,3.63
2022-11-06T22:29:07.490Z,4.00
2022-11-06T22:31:34.342Z,3.63
2022-11-06T22:34:01.140Z,3.80
2022-11-06T22:36:27.945Z,4.33
2022-11-06T22:38:54.894Z,3.70
2022-11-06T22:41:23.542Z,3.73
2022-11-06T22:43:50.621Z,3.30
2022-11-06T22:46:22.675Z,3.43
2022-11-06T22:48:50.590Z,3.07
2022-11-06T22:51:21.614Z,3.87
2022-11-06T22:53:50.233Z,3.67
2022-11-06T22:56:17.133Z,4.10
2022-11-06T22:58:44.013Z,3.87
2022-11-06T23:01:11.116Z,4.73
2022-11-06T23:03:38.206Z,3.83
2022-11-06T23:06:07.131Z,3.57
2022-11-06T23:08:34.124Z,3.57
2022-11-06T23:11:08.450Z,4.13
2022-11-06T23:13:35.453Z,3.90
2022-11-06T23:16:04.186Z,3.63
2022-11-06T23:18:30.997Z,3.97
2022-11-06T23:20:57.861Z,3.70
2022-11-06T23:23:24.712Z,3.23
2022-11-06T23:25:52.504Z,3.37
2022-11-06T23:28:19.359Z,4.00
2022-11-06T23:30:46.356Z,3.67
2022-11-06T23:33:13.587Z,3.70
2022-11-06T23:35:40.643Z,3.43
2022-11-06T23:38:07.451Z,3.70
2022-11-06T23:40:34.290Z,3.80
2022-11-06T23:43:01.101Z,3.30
2022-11-06T23:45:46.641Z,4.40
2022-11-06T23:48:13.975Z,3.70
2022-11-06T23:50:41.438Z,3.70
2022-11-06T23:53:08.237Z,3.27
2022-11-06T23:55:36.124Z,3.80
2022-11-06T23:58:02.937Z,3.27
